createdAt,value
2019-02-06T00:01:22.357Z,11.00
2019-02-06T00:03:49.067Z,10.72
2019-02-06T00:06:15.396Z,9.80
2019-02-06T00:08:41.855Z,10.30
2019-02-06T00:11:08.576Z,9.98
2019-02-06T00:13:34.989Z,8.83
2019-02-06T00:16:01.805Z,13.32
2019-02-06T00:18:28.408Z,10.05
2019-02-06T00:20:55.113Z,12.50
2019-02-06T00:23:21.505Z,11.88
2019-02-06T00:25:47.805Z,9.80
2019-02-06T00:28:14.335Z,10.25
2019-02-06T00:30:40.838Z,9.23
2019-02-06T00:33:08.310Z,11.03
2019-02-06T00:35:34.950Z,9.10
2019-02-06T00:38:01.462Z,9.70
2019-02-06T00:40:27.979Z,10.25
2019-02-06T00:42:54.657Z,9.40
2019-02-06T00:45:21.053Z,10.32
2019-02-06T00:47:47.560Z,10.55
2019-02-06T00:50:15.312Z,8.88
2019-02-06T00:52:41.728Z,8.80
2019-02-06T00:55:09.050Z,8.98
2019-02-06T00:57:35.804Z,9.60
2019-02-06T01:00:06.337Z,11.43
2019-02-06T01:02:32.854Z,9.05
2019-02-06T01:04:59.516Z,8.45
2019-02-06T01:07:27.278Z,8.20
2019-02-06T01:09:54.116Z,12.75
2019-02-06T01:12:20.629Z,9.78
2019-02-06T01:14:46.959Z,10.65
2019-02-06T01:17:13.477Z,9.85
2019-02-06T01:19:40.032Z,8.48
2019-02-06T01:22:06.336Z,10.30
2019-02-06T01:24:32.628Z,9.35
2019-02-06T01:26:59.440Z,7.85
2019-02-06T01:29:26.347Z,10.45
2019-02-06T01:31:53.577Z,12.70
2019-02-06T01:34:20.386Z,8.73
2019-02-06T01:36:46.798Z,10.88
2019-02-06T01:39:13.425Z,7.80
2019-02-06T01:41:39.944Z,8.88
2019-02-06T01:44:06.489Z,8.65
2019-02-06T01:46:32.996Z,9.23
2019-02-06T01:48:59.492Z,8.05
2019-02-06T01:51:26.023Z,8.50
2019-02-06T01:53:52.521Z,8.13
2019-02-06T01:56:19.061Z,9.13
2019-02-06T01:58:45.470Z,8.35
2019-02-06T02:01:11.969Z,7.28
2019-02-06T02:03:38.277Z,7.45
2019-02-06T02:06:05.039Z,8.45
2019-02-06T02:08:34.246Z,9.10
2019-02-06T02:11:00.873Z,7.72
2019-02-06T02:13:27.609Z,9.50
2019-02-06T02:15:54.727Z,7.83
2019-02-06T02:18:21.450Z,8.38
2019-02-06T02:20:48.100Z,8.55
2019-02-06T02:23:14.988Z,7.20
2019-02-06T02:25:41.398Z,11.88
2019-02-06T02:28:07.722Z,10.08
2019-02-06T02:30:42.505Z,9.75
2019-02-06T02:33:09.133Z,7.62
2019-02-06T02:35:35.453Z,8.40
2019-02-06T02:38:01.858Z,7.83
2019-02-06T02:40:28.290Z,7.40
2019-02-06T02:42:54.695Z,7.28
2019-02-06T02:45:21.122Z,7.78
2019-02-06T02:47:47.530Z,11.25
2019-02-06T02:50:13.843Z,7.80
2019-02-06T02:52:40.258Z,8.10
2019-02-06T02:55:08.667Z,8.70
2019-02-06T02:57:35.210Z,7.70
2019-02-06T03:00:04.025Z,6.50
2019-02-06T03:02:32.379Z,8.38
2019-02-06T03:04:59.569Z,7.80
2019-02-06T03:07:25.952Z,9.55
2019-02-06T03:09:52.503Z,7.70
2019-02-06T03:12:18.901Z,10.03
2019-02-06T03:14:45.217Z,8.55
2019-02-06T03:17:11.724Z,6.62
2019-02-06T03:19:38.225Z,7.45
2019-02-06T03:22:04.556Z,8.15
2019-02-06T03:24:31.279Z,7.25
2019-02-06T03:26:57.584Z,8.05
2019-02-06T03:29:24.133Z,7.58
2019-02-06T03:31:50.763Z,7.33
2019-02-06T03:34:17.324Z,7.75
2019-02-06T03:36:43.645Z,6.28
2019-02-06T03:39:10.382Z,7.08
2019-02-06T03:41:36.782Z,9.93
2019-02-06T03:44:03.618Z,8.20
2019-02-06T03:46:30.025Z,7.83
2019-02-06T03:48:57.571Z,6.62
2019-02-06T03:51:23.856Z,6.75
2019-02-06T03:53:50.166Z,7.58
2019-02-06T03:56:16.480Z,6.50
2019-02-06T03:58:42.885Z,6.08
2019-02-06T04:01:11.455Z,6.40
2019-02-06T04:03:38.223Z,6.70
2019-02-06T04:06:04.717Z,6.12
2019-02-06T04:08:31.334Z,7.03
2019-02-06T04:10:58.308Z,6.00
2019-02-06T04:13:24.639Z,7.10
2019-02-06T04:15:51.150Z,8.25
2019-02-06T04:18:17.585Z,17.35
2019-02-06T04:20:44.237Z,16.00
2019-02-06T04:23:12.500Z,11.80
2019-02-06T04:25:38.837Z,16.00
2019-02-06T04:28:05.445Z,12.90
2019-02-06T04:30:31.952Z,9.63
2019-02-06T04:32:59.353Z,9.68
2019-02-06T04:35:25.831Z,10.05
2019-02-06T04:37:52.443Z,8.38
2019-02-06T04:40:19.460Z,13.50
2019-02-06T04:42:46.261Z,12.47
2019-02-06T04:45:15.187Z,11.68
2019-02-06T04:47:41.862Z,11.30
2019-02-06T04:50:10.496Z,26.73
2019-02-06T04:52:37.259Z,11.35
2019-02-06T04:55:06.151Z,19.07
2019-02-06T04:57:32.892Z,31.00
2019-02-06T04:59:59.296Z,35.48
2019-02-06T05:02:32.351Z,26.23
2019-02-06T05:04:58.624Z,25.35
2019-02-06T05:07:25.190Z,22.20
2019-02-06T05:09:51.854Z,26.85
2019-02-06T05:12:18.503Z,20.85
2019-02-06T05:14:45.521Z,16.15
2019-02-06T05:17:12.032Z,18.20
2019-02-06T05:19:38.741Z,16.27
2019-02-06T05:22:05.349Z,12.65
2019-02-06T05:24:31.985Z,15.05
2019-02-06T05:26:58.314Z,13.88
2019-02-06T05:29:24.629Z,15.53
2019-02-06T05:31:50.922Z,17.37
2019-02-06T05:34:17.665Z,13.15
2019-02-06T05:36:44.074Z,11.30
2019-02-06T05:39:11.002Z,12.05
2019-02-06T05:41:37.413Z,14.90
2019-02-06T05:44:04.069Z,9.80
2019-02-06T05:46:30.520Z,15.03
2019-02-06T05:48:56.901Z,13.00
2019-02-06T05:51:23.441Z,13.45
2019-02-06T05:53:49.853Z,10.10
2019-02-06T05:56:16.259Z,12.35
2019-02-06T05:58:42.793Z,10.75
2019-02-06T06:01:10.016Z,9.73
2019-02-06T06:03:36.557Z,9.00
2019-02-06T06:06:02.870Z,13.72
2019-02-06T06:08:29.300Z,9.15
2019-02-06T06:10:55.876Z,10.18
2019-02-06T06:13:22.781Z,8.83
2019-02-06T06:15:49.227Z,9.28
2019-02-06T06:18:15.734Z,14.43
2019-02-06T06:20:42.239Z,8.63
2019-02-06T06:23:09.052Z,9.60
2019-02-06T06:25:35.578Z,8.20
2019-02-06T06:28:02.499Z,11.63
2019-02-06T06:30:28.893Z,7.85
2019-02-06T06:32:55.576Z,8.25
2019-02-06T06:35:22.185Z,10.78
2019-02-06T06:37:57.817Z,10.53
2019-02-06T06:40:21.381Z,7.65
2019-02-06T06:42:48.025Z,8.03
2019-02-06T06:45:16.517Z,6.42
2019-02-06T06:47:42.925Z,10.55
2019-02-06T06:50:14.907Z,6.17
2019-02-06T06:52:41.891Z,7.55
2019-02-06T06:55:10.515Z,7.40
2019-02-06T06:57:37.246Z,7.78
2019-02-06T07:00:13.572Z,7.05
2019-02-06T07:02:39.876Z,9.83
2019-02-06T07:05:08.886Z,9.58
2019-02-06T07:07:35.643Z,10.43
2019-02-06T07:10:05.368Z,9.18
2019-02-06T07:12:32.491Z,6.37
2019-02-06T07:14:59.405Z,10.35
2019-02-06T07:17:26.080Z,8.78
2019-02-06T07:19:52.412Z,8.18
2019-02-06T07:22:18.817Z,7.37
2019-02-06T07:24:45.692Z,8.48
2019-02-06T07:27:12.207Z,5.70
2019-02-06T07:29:38.525Z,7.03
2019-02-06T07:32:05.162Z,6.25
2019-02-06T07:34:31.948Z,6.35
2019-02-06T07:36:58.282Z,7.35
2019-02-06T07:39:25.285Z,5.85
2019-02-06T07:41:52.123Z,8.48
2019-02-06T07:44:18.965Z,8.03
2019-02-06T07:46:45.807Z,5.95
2019-02-06T07:49:12.966Z,8.33
2019-02-06T07:51:39.599Z,7.37
2019-02-06T07:54:06.448Z,5.25
2019-02-06T07:56:33.120Z,27.05
2019-02-06T07:59:00.019Z,19.10
2019-02-06T08:01:26.630Z,19.37
2019-02-06T08:03:53.280Z,8.78
2019-02-06T08:06:20.241Z,11.95
2019-02-06T08:08:47.012Z,8.30
2019-02-06T08:11:13.803Z,6.70
2019-02-06T08:13:40.928Z,8.85
2019-02-06T08:16:07.656Z,7.75
2019-02-06T08:18:34.862Z,4.50
2019-02-06T08:21:01.613Z,5.62
2019-02-06T08:23:28.561Z,4.67
2019-02-06T08:25:55.521Z,4.17
2019-02-06T08:28:22.433Z,5.72
2019-02-06T08:30:49.276Z,5.37
2019-02-06T08:33:16.229Z,4.58
2019-02-06T08:35:43.273Z,3.22
2019-02-06T08:38:10.442Z,2.92
2019-02-06T08:40:37.292Z,4.92
2019-02-06T08:43:05.268Z,3.05
2019-02-06T08:45:32.094Z,2.45
2019-02-06T08:47:59.051Z,3.27
2019-02-06T08:50:26.569Z,3.52
2019-02-06T08:52:53.326Z,2.30
2019-02-06T08:55:25.606Z,3.70
2019-02-06T08:57:52.354Z,5.70
2019-02-06T09:00:29.669Z,6.72
2019-02-06T09:02:56.343Z,6.65
2019-02-06T09:05:23.586Z,8.28
2019-02-06T09:07:50.380Z,5.55
2019-02-06T09:10:25.184Z,7.45
2019-02-06T09:12:52.491Z,5.87
2019-02-06T09:15:19.182Z,9.05
2019-02-06T09:17:45.704Z,3.37
2019-02-06T09:20:23.671Z,4.00
2019-02-06T09:22:50.330Z,4.78
2019-02-06T09:25:18.792Z,9.43
2019-02-06T09:27:45.553Z,7.12
2019-02-06T09:30:15.248Z,9.53
2019-02-06T09:32:41.598Z,9.35
2019-02-06T09:35:08.482Z,13.95
2019-02-06T09:37:35.270Z,8.60
2019-02-06T09:40:02.807Z,8.45
2019-02-06T09:42:29.342Z,9.13
2019-02-06T09:44:55.901Z,9.35
2019-02-06T09:47:22.207Z,14.07
2019-02-06T09:49:49.931Z,10.23
2019-02-06T09:52:16.609Z,12.30
2019-02-06T09:54:43.093Z,10.50
2019-02-06T09:57:09.646Z,10.25
2019-02-06T09:59:36.658Z,11.30
2019-02-06T10:02:03.279Z,8.78
2019-02-06T10:04:29.843Z,9.85
2019-02-06T10:06:56.389Z,10.38
2019-02-06T10:09:23.291Z,8.48
2019-02-06T10:11:49.901Z,7.67
2019-02-06T10:14:16.225Z,7.83
2019-02-06T10:16:42.847Z,8.45
2019-02-06T10:19:09.747Z,7.80
2019-02-06T10:21:36.393Z,13.00
2019-02-06T10:24:02.677Z,6.58
2019-02-06T10:26:29.618Z,8.15
2019-02-06T10:28:56.143Z,8.20
2019-02-06T10:31:22.546Z,8.55
2019-02-06T10:33:48.997Z,7.72
2019-02-06T10:36:15.478Z,5.53
2019-02-06T10:38:42.381Z,5.72
2019-02-06T10:41:08.665Z,4.60
2019-02-06T10:43:35.862Z,5.72
2019-02-06T10:46:02.586Z,3.55
2019-02-06T10:48:28.901Z,3.42
2019-02-06T10:50:58.242Z,4.83
2019-02-06T10:53:24.130Z,3.02
2019-02-06T10:55:50.778Z,4.95
2019-02-06T10:58:17.802Z,5.90
2019-02-06T11:00:52.939Z,3.40
2019-02-06T11:03:19.508Z,2.60
2019-02-06T11:05:49.987Z,3.42
2019-02-06T11:08:25.679Z,4.10
2019-02-06T11:10:52.522Z,3.25
2019-02-06T11:13:18.817Z,5.87
2019-02-06T11:15:45.273Z,12.70
2019-02-06T11:18:11.941Z,24.92
2019-02-06T11:20:38.828Z,20.70
2019-02-06T11:23:06.046Z,11.22
2019-02-06T11:25:32.585Z,11.33
2019-02-06T11:27:59.018Z,9.93
2019-02-06T11:30:31.152Z,24.07
2019-02-06T11:32:57.870Z,16.35
2019-02-06T11:35:24.181Z,15.68
2019-02-06T11:37:50.992Z,24.92
2019-02-06T11:40:22.044Z,17.37
2019-02-06T11:42:48.861Z,8.75
2019-02-06T11:45:17.769Z,8.18
2019-02-06T11:47:45.078Z,12.40
2019-02-06T11:50:15.180Z,14.45
2019-02-06T11:52:41.718Z,12.63
2019-02-06T11:55:11.343Z,12.18
2019-02-06T11:57:37.652Z,6.60
2019-02-06T12:00:11.758Z,5.12
2019-02-06T12:02:39.138Z,7.00
2019-02-06T12:05:07.239Z,2.40
2019-02-06T12:07:33.557Z,2.87
2019-02-06T12:10:09.434Z,8.48
2019-02-06T12:12:28.178Z,4.50
2019-02-06T12:14:54.478Z,2.52
2019-02-06T12:17:20.989Z,2.00
2019-02-06T12:19:47.729Z,2.12
2019-02-06T12:22:14.624Z,5.45
2019-02-06T12:24:40.930Z,2.15
2019-02-06T12:27:07.340Z,2.65
2019-02-06T12:29:33.634Z,2.08
2019-02-06T12:32:00.053Z,1.92
2019-02-06T12:34:26.672Z,3.10
2019-02-06T12:36:53.082Z,3.17
2019-02-06T12:39:22.472Z,1.87
2019-02-06T12:41:47.614Z,0.85
2019-02-06T12:44:14.161Z,2.00
2019-02-06T12:46:41.277Z,1.75
2019-02-06T12:49:08.044Z,1.30
2019-02-06T12:51:34.369Z,1.07
2019-02-06T12:54:00.924Z,4.20
2019-02-06T12:56:27.525Z,1.25
2019-02-06T12:58:54.407Z,1.02
2019-02-06T13:01:21.132Z,0.82
2019-02-06T13:03:47.748Z,1.40
2019-02-06T13:06:14.166Z,1.00
2019-02-06T13:08:41.361Z,1.40
2019-02-06T13:11:07.997Z,1.40
2019-02-06T13:13:34.859Z,2.20
2019-02-06T13:16:01.162Z,1.05
2019-02-06T13:18:27.466Z,1.95
2019-02-06T13:20:53.898Z,1.10
2019-02-06T13:23:20.301Z,1.60
2019-02-06T13:25:46.606Z,1.10
2019-02-06T13:28:13.525Z,0.85
2019-02-06T13:30:40.147Z,3.20
2019-02-06T13:33:07.090Z,5.03
2019-02-06T13:35:33.401Z,5.00
2019-02-06T13:37:59.907Z,11.75
2019-02-06T13:40:27.743Z,6.67
2019-02-06T13:42:54.727Z,5.20
2019-02-06T13:45:27.834Z,6.17
2019-02-06T13:47:54.237Z,8.05
2019-02-06T13:50:22.416Z,6.40
2019-02-06T13:52:48.978Z,5.45
2019-02-06T13:55:15.776Z,4.33
2019-02-06T13:57:42.176Z,6.72
2019-02-06T14:00:14.668Z,3.58
2019-02-06T14:02:41.473Z,4.40
2019-02-06T14:05:08.228Z,3.52
2019-02-06T14:07:34.523Z,2.70
2019-02-06T14:10:01.140Z,2.85
2019-02-06T14:12:27.613Z,3.70
2019-02-06T14:14:53.917Z,2.47
2019-02-06T14:17:20.635Z,2.20
2019-02-06T14:19:47.133Z,2.45
2019-02-06T14:22:13.866Z,1.87
2019-02-06T14:24:43.165Z,1.45
2019-02-06T14:27:13.267Z,1.65
2019-02-06T14:30:09.769Z,2.45
2019-02-06T14:32:40.373Z,6.15
2019-02-06T14:35:34.960Z,1.90
2019-02-06T14:38:38.474Z,5.58
2019-02-06T14:41:08.950Z,2.37
2019-02-06T14:43:48.149Z,2.47
2019-02-06T14:46:43.349Z,3.02
2019-02-06T14:49:16.758Z,2.80
2019-02-06T14:52:17.152Z,3.20
2019-02-06T14:54:47.253Z,1.85
2019-02-06T14:57:29.702Z,2.40
2019-02-06T14:59:59.809Z,2.62
2019-02-06T15:02:42.073Z,2.40
2019-02-06T15:05:21.261Z,3.00
2019-02-06T15:07:51.552Z,4.30
2019-02-06T15:10:28.034Z,3.02
2019-02-06T15:13:00.932Z,2.02
2019-02-06T15:15:37.153Z,2.58
2019-02-06T15:18:28.692Z,3.25
2019-02-06T15:21:04.617Z,10.55
2019-02-06T15:23:37.506Z,6.50
2019-02-06T15:26:16.404Z,10.65
2019-02-06T15:28:46.803Z,6.28
2019-02-06T15:31:28.896Z,3.33
2019-02-06T15:34:33.047Z,10.65
2019-02-06T15:37:18.407Z,8.18
2019-02-06T15:40:00.713Z,4.42
2019-02-06T15:42:31.206Z,5.53
2019-02-06T15:45:16.533Z,10.78
2019-02-06T15:47:52.984Z,5.12
2019-02-06T15:50:42.304Z,9.70
2019-02-06T15:53:15.449Z,8.98
2019-02-06T15:55:51.313Z,6.25
2019-02-06T15:58:42.853Z,5.17
2019-02-06T16:01:34.360Z,5.35
2019-02-06T16:04:49.437Z,3.45
2019-02-06T16:07:43.803Z,5.80
2019-02-06T16:10:35.058Z,6.28
2019-02-06T16:13:35.168Z,3.27
2019-02-06T16:16:20.711Z,3.22
2019-02-06T16:18:59.880Z,4.17
2019-02-06T16:21:39.396Z,3.80
2019-02-06T16:24:15.260Z,3.95
2019-02-06T16:26:51.339Z,3.35
2019-02-06T16:29:41.070Z,2.27
2019-02-06T16:32:28.634Z,3.77
2019-02-06T16:35:16.417Z,4.37
2019-02-06T16:38:01.229Z,6.60
2019-02-06T16:40:47.025Z,5.20
2019-02-06T16:43:52.899Z,4.25
2019-02-06T16:46:25.930Z,5.75
2019-02-06T16:49:08.494Z,4.47
2019-02-06T16:51:41.636Z,5.83
2019-02-06T16:54:12.183Z,6.78
2019-02-06T16:56:42.318Z,8.58
2019-02-06T16:59:32.596Z,10.70
2019-02-06T17:02:28.563Z,7.83
2019-02-06T17:05:13.633Z,10.45
2019-02-06T17:07:46.514Z,8.28
2019-02-06T17:10:34.144Z,8.33
2019-02-06T17:13:30.193Z,8.25
2019-02-06T17:16:21.364Z,5.10
2019-02-06T17:18:54.930Z,4.60
2019-02-06T17:21:37.001Z,6.47
2019-02-06T17:24:16.090Z,3.95
2019-02-06T17:26:58.278Z,8.33
2019-02-06T17:29:43.045Z,5.55
2019-02-06T17:32:33.072Z,8.13
2019-02-06T17:35:15.356Z,6.22
2019-02-06T17:38:02.215Z,8.85
2019-02-06T17:40:35.592Z,9.83
2019-02-06T17:43:30.196Z,8.05
2019-02-06T17:46:03.428Z,9.58
2019-02-06T17:48:37.323Z,7.62
2019-02-06T17:51:15.935Z,13.15
2019-02-06T17:53:46.209Z,8.10
2019-02-06T17:56:12.518Z,5.67
2019-02-06T17:58:39.032Z,7.05
2019-02-06T18:01:09.506Z,10.95
2019-02-06T18:03:38.833Z,8.23
2019-02-06T18:06:05.483Z,5.60
2019-02-06T18:08:32.321Z,9.73
2019-02-06T18:10:58.911Z,5.28
2019-02-06T18:13:25.311Z,6.53
2019-02-06T18:15:51.826Z,5.37
2019-02-06T18:18:18.669Z,7.87
2019-02-06T18:20:45.340Z,8.48
2019-02-06T18:23:11.749Z,14.80
2019-02-06T18:25:38.162Z,12.47
2019-02-06T18:28:04.665Z,11.85
2019-02-06T18:30:31.106Z,7.55
2019-02-06T18:32:58.303Z,8.98
2019-02-06T18:35:24.617Z,9.23
2019-02-06T18:37:51.050Z,8.68
2019-02-06T18:40:17.566Z,11.65
2019-02-06T18:42:44.673Z,7.70
2019-02-06T18:45:14.490Z,11.95
2019-02-06T18:47:40.784Z,9.10
2019-02-06T18:50:14.025Z,8.88
2019-02-06T18:52:40.804Z,8.60
2019-02-06T18:55:10.417Z,7.78
2019-02-06T18:57:36.834Z,6.17
2019-02-06T19:00:10.298Z,10.58
2019-02-06T19:02:37.029Z,8.35
2019-02-06T19:05:07.177Z,5.92
2019-02-06T19:07:39.994Z,6.50
2019-02-06T19:10:13.148Z,6.97
2019-02-06T19:12:47.874Z,6.60
2019-02-06T19:15:10.496Z,5.60
2019-02-06T19:17:37.105Z,5.70
2019-02-06T19:20:08.056Z,8.85
2019-02-06T19:22:34.706Z,7.92
2019-02-06T19:25:01.341Z,6.53
2019-02-06T19:27:27.976Z,6.67
2019-02-06T19:29:54.418Z,7.17
2019-02-06T19:32:20.954Z,5.22
2019-02-06T19:34:47.628Z,8.03
2019-02-06T19:37:15.011Z,9.23
2019-02-06T19:39:41.526Z,5.03
2019-02-06T19:42:08.774Z,5.75
2019-02-06T19:44:35.663Z,4.97
2019-02-06T19:47:02.060Z,4.87
2019-02-06T19:49:28.630Z,5.53
2019-02-06T19:51:55.018Z,6.47
2019-02-06T19:54:23.512Z,4.20
2019-02-06T19:56:50.071Z,5.55
2019-02-06T19:59:16.587Z,6.47
2019-02-06T20:01:43.409Z,7.15
2019-02-06T20:04:10.717Z,7.42
2019-02-06T20:06:37.077Z,4.47
2019-02-06T20:09:05.612Z,6.95
2019-02-06T20:11:32.015Z,4.92
2019-02-06T20:13:58.673Z,7.60
2019-02-06T20:16:25.409Z,13.95
2019-02-06T20:18:52.007Z,6.87
2019-02-06T20:21:18.411Z,13.13
2019-02-06T20:23:44.826Z,15.00
2019-02-06T20:26:11.224Z,8.40
2019-02-06T20:28:38.253Z,6.12
2019-02-06T20:31:04.705Z,9.80
2019-02-06T20:33:31.125Z,9.25
2019-02-06T20:35:57.584Z,7.00
2019-02-06T20:38:23.916Z,6.65
2019-02-06T20:40:50.450Z,5.72
2019-02-06T20:43:22.205Z,5.70
2019-02-06T20:45:45.786Z,10.95
2019-02-06T20:48:12.101Z,3.90
2019-02-06T20:50:39.236Z,6.37
2019-02-06T20:53:05.906Z,5.87
2019-02-06T20:55:32.455Z,5.80
2019-02-06T20:57:58.774Z,6.33
2019-02-06T21:00:30.806Z,4.25
2019-02-06T21:02:57.758Z,3.83
2019-02-06T21:05:24.284Z,4.22
2019-02-06T21:07:50.730Z,3.52
2019-02-06T21:10:23.381Z,4.33
2019-02-06T21:12:49.803Z,4.05
2019-02-06T21:15:16.454Z,7.15
2019-02-06T21:17:43.315Z,3.72
2019-02-06T21:20:12.633Z,4.30
2019-02-06T21:22:39.153Z,3.65
2019-02-06T21:25:09.629Z,4.65
2019-02-06T21:27:36.277Z,4.33
2019-02-06T21:30:06.414Z,2.22
2019-02-06T21:32:32.813Z,4.45
2019-02-06T21:34:59.290Z,2.98
2019-02-06T21:37:27.131Z,3.45
2019-02-06T21:39:53.829Z,2.35
2019-02-06T21:42:20.280Z,2.35
2019-02-06T21:44:47.198Z,2.52
2019-02-06T21:47:13.495Z,2.83
2019-02-06T21:49:39.816Z,3.00
2019-02-06T21:52:06.348Z,5.47
2019-02-06T21:54:32.852Z,2.72
2019-02-06T21:56:59.293Z,3.45
2019-02-06T21:59:25.824Z,3.72
2019-02-06T22:01:52.364Z,3.27
2019-02-06T22:04:19.080Z,3.60
2019-02-06T22:06:45.573Z,1.98
2019-02-06T22:09:11.897Z,2.98
2019-02-06T22:11:38.309Z,3.52
2019-02-06T22:14:04.822Z,3.08
2019-02-06T22:16:31.477Z,2.30
2019-02-06T22:18:57.883Z,3.10
2019-02-06T22:21:24.206Z,2.75
2019-02-06T22:23:51.254Z,2.47
2019-02-06T22:26:17.687Z,2.90
2019-02-06T22:28:44.309Z,2.10
2019-02-06T22:31:10.947Z,2.92
2019-02-06T22:33:37.248Z,2.85
2019-02-06T22:36:03.771Z,2.90
2019-02-06T22:38:30.193Z,2.62
2019-02-06T22:40:56.654Z,3.05
2019-02-06T22:43:23.516Z,2.65
2019-02-06T22:45:49.957Z,2.27
2019-02-06T22:48:16.637Z,2.75
2019-02-06T22:50:43.208Z,2.45
2019-02-06T22:53:10.066Z,2.25
2019-02-06T22:55:36.485Z,2.80
2019-02-06T22:58:02.805Z,2.47
2019-02-06T23:00:43.753Z,3.60
2019-02-06T23:03:10.064Z,2.92
2019-02-06T23:05:36.470Z,2.45
2019-02-06T23:08:02.803Z,4.50
2019-02-06T23:10:29.334Z,4.37
2019-02-06T23:12:55.725Z,3.35
2019-02-06T23:15:22.149Z,2.70
2019-02-06T23:17:48.759Z,2.72
2019-02-06T23:20:16.121Z,4.33
2019-02-06T23:22:42.432Z,6.53
2019-02-06T23:25:08.945Z,2.83
2019-02-06T23:27:35.264Z,3.75
2019-02-06T23:30:01.661Z,1.65
2019-02-06T23:32:28.077Z,2.37
2019-02-06T23:34:54.482Z,2.55
2019-02-06T23:37:21.659Z,2.72
2019-02-06T23:39:48.096Z,2.08
2019-02-06T23:42:14.731Z,2.65
2019-02-06T23:44:41.277Z,2.45
2019-02-06T23:47:07.598Z,2.52
2019-02-06T23:49:33.999Z,2.98
2019-02-06T23:52:00.316Z,2.35
2019-02-06T23:54:26.608Z,2.02
2019-02-06T23:56:53.537Z,2.37
2019-02-06T23:59:19.957Z,2.55
